Balm, North Carolina
Current Conditions -  °F | °C
As of 4:55 AM on Monday 22 Dec 2014 (Local Time) from KTNB Reporting Station
Haze Haze  
Wind Chill: 34°   Ceiling: 300
Heat Index: 34°   Visibility: 1.5mi
Dew Point: 34°   Wind: 3mph
Humidity: 100%   Direction: 120°ESE
Pressure: 30.07"   Gusts: NA
Location:  36.1797°N, 81.8424°W
Report Text: KTNB 220955Z AUTO 12003KT 1 1/2SM BR OVC003 01/01 A3007 RMK AO2 T00100010
Loading
Personal Weather Stations






























Interactive Weather Map New forecast layout! Learn more

10-Day Weather Forecast

Advertisements
Track Severe Weather on mobile